Terminal Aerodrome Forecast
Issued by NWS

Home | Current Version | Previous Version | Text Only | Print | Product List | Glossary On
Versions: 1 2 3 4 5 6 7 8 9 10 11 12 13 14 15 16 17 18 19 20 21 22 23 24 25 26 27
510
FTUS43 KDLH 101003 AAA
TAFHYR
TAF AMD
KHYR 101003Z 1010/1106 35004KT P6SM VCSH OVC019
      TEMPO 1010/1014 6SM -SN
     FM101700 01004KT P6SM SCT020
     FM102200 35003KT P6SM SKC=

USA.gov is the U.S. government's official web portal to all federal, state and local government web resources and services.